createdAt,value
2019-05-23T00:01:18.119Z,7.97
2019-05-23T00:02:42.224Z,9.93
2019-05-23T00:04:03.812Z,9.67
2019-05-23T00:05:36.434Z,13.43
2019-05-23T00:06:44.988Z,10.33
2019-05-23T00:07:52.989Z,14.23
2019-05-23T00:09:02.299Z,9.33
2019-05-23T00:10:13.375Z,9.23
2019-05-23T00:11:45.637Z,8.20
2019-05-23T00:13:05.011Z,14.33
2019-05-23T00:14:23.902Z,11.23
2019-05-23T00:15:36.936Z,10.30
2019-05-23T00:16:45.437Z,8.70
2019-05-23T00:17:53.919Z,11.63
2019-05-23T00:19:01.917Z,12.03
2019-05-23T00:20:11.455Z,8.77
2019-05-23T00:21:20.109Z,9.77
2019-05-23T00:22:30.118Z,13.83
2019-05-23T00:23:37.727Z,10.70
2019-05-23T00:24:47.064Z,11.77
2019-05-23T00:25:54.315Z,10.30
2019-05-23T00:27:03.244Z,10.07
2019-05-23T00:28:10.979Z,9.03
2019-05-23T00:29:20.153Z,9.57
2019-05-23T00:30:35.518Z,10.33
2019-05-23T00:31:51.371Z,12.00
2019-05-23T00:33:01.205Z,10.83
2019-05-23T00:34:10.761Z,9.13
2019-05-23T00:35:19.595Z,11.53
2019-05-23T00:36:28.950Z,11.50
2019-05-23T00:37:37.758Z,9.00
2019-05-23T00:38:46.980Z,11.07
2019-05-23T00:39:55.085Z,13.57
2019-05-23T00:41:03.775Z,10.17
2019-05-23T00:42:10.731Z,10.10
2019-05-23T00:43:19.510Z,12.70
2019-05-23T00:44:26.997Z,9.73
2019-05-23T00:45:35.704Z,9.70
2019-05-23T00:46:44.011Z,11.50
2019-05-23T00:47:53.056Z,10.70
2019-05-23T00:49:00.448Z,13.20
2019-05-23T00:50:09.647Z,9.50
2019-05-23T00:51:16.928Z,8.77
2019-05-23T00:52:25.129Z,10.50
2019-05-23T00:53:32.719Z,10.47
2019-05-23T00:54:40.929Z,14.53
2019-05-23T00:55:49.243Z,12.40
2019-05-23T00:56:58.387Z,11.00
2019-05-23T00:58:06.265Z,12.27
2019-05-23T00:59:26.769Z,10.23
2019-05-23T01:00:26.049Z,8.97
2019-05-23T01:01:35.136Z,9.07
2019-05-23T01:02:43.170Z,9.33
2019-05-23T01:03:51.947Z,11.50
2019-05-23T01:04:58.985Z,9.67
2019-05-23T01:06:07.668Z,12.63
2019-05-23T01:07:16.191Z,9.10
2019-05-23T01:08:24.363Z,11.10
2019-05-23T01:09:32.836Z,14.33
2019-05-23T01:10:41.061Z,10.30
2019-05-23T01:11:48.333Z,14.07
2019-05-23T01:12:56.821Z,10.67
2019-05-23T01:14:04.916Z,11.23
2019-05-23T01:15:13.440Z,11.33
2019-05-23T01:16:22.042Z,8.20
2019-05-23T01:17:32.134Z,9.67
2019-05-23T01:18:39.455Z,8.97
2019-05-23T01:19:47.816Z,10.57
2019-05-23T01:21:19.906Z,10.53
2019-05-23T01:22:28.026Z,11.80
2019-05-23T01:23:37.216Z,10.97
2019-05-23T01:24:47.646Z,12.13
2019-05-23T01:25:56.138Z,13.93
2019-05-23T01:27:05.720Z,7.90
2019-05-23T01:28:13.411Z,12.50
2019-05-23T01:29:23.502Z,10.03
2019-05-23T01:30:36.842Z,9.70
2019-05-23T01:31:46.367Z,10.70
2019-05-23T01:32:55.959Z,11.20
2019-05-23T01:34:05.525Z,10.27
2019-05-23T01:35:14.041Z,8.60
2019-05-23T01:36:22.581Z,10.37
2019-05-23T01:37:30.986Z,12.97
2019-05-23T01:38:39.886Z,12.17
2019-05-23T01:39:47.793Z,11.67
2019-05-23T01:40:55.453Z,14.10
2019-05-23T01:42:03.077Z,11.53
2019-05-23T01:43:11.720Z,10.50
2019-05-23T01:44:19.309Z,14.43
2019-05-23T01:45:28.508Z,21.90
2019-05-23T01:46:36.216Z,18.97
2019-05-23T01:47:44.434Z,12.13
2019-05-23T01:48:51.269Z,9.10
2019-05-23T01:49:59.390Z,9.37
2019-05-23T01:51:07.599Z,16.07
2019-05-23T01:52:17.592Z,13.00
2019-05-23T01:53:25.098Z,12.93
2019-05-23T01:54:33.287Z,12.60
2019-05-23T01:55:41.499Z,13.90
2019-05-23T01:56:51.610Z,12.80
2019-05-23T01:57:58.939Z,14.13
2019-05-23T01:59:06.971Z,13.63
2019-05-23T02:00:15.683Z,14.40
2019-05-23T02:01:24.639Z,12.73
2019-05-23T02:02:32.048Z,14.23
2019-05-23T02:03:40.377Z,11.50
2019-05-23T02:04:48.649Z,13.40
2019-05-23T02:05:56.528Z,10.27
2019-05-23T02:07:03.488Z,17.80
2019-05-23T02:08:14.648Z,12.80
2019-05-23T02:09:22.444Z,16.30
2019-05-23T02:10:31.546Z,16.77
2019-05-23T02:11:38.844Z,11.90
2019-05-23T02:12:47.640Z,13.90
2019-05-23T02:13:54.451Z,13.00
2019-05-23T02:15:03.062Z,12.27
2019-05-23T02:16:11.333Z,15.20
2019-05-23T02:17:19.221Z,12.77
2019-05-23T02:18:28.181Z,11.87
2019-05-23T02:19:36.707Z,13.00
2019-05-23T02:20:45.027Z,18.00
2019-05-23T02:21:53.334Z,12.33
2019-05-23T02:23:00.837Z,11.70
2019-05-23T02:24:09.457Z,16.27
2019-05-23T02:25:17.618Z,15.90
2019-05-23T02:26:27.733Z,13.70
2019-05-23T02:27:34.965Z,13.53
2019-05-23T02:28:44.172Z,15.37
2019-05-23T02:29:51.288Z,13.70
2019-05-23T02:31:00.423Z,10.10
2019-05-23T02:32:10.146Z,10.80
2019-05-23T02:33:18.918Z,12.23
2019-05-23T02:34:26.915Z,14.87
2019-05-23T02:35:34.911Z,13.23
2019-05-23T02:36:43.226Z,11.70
2019-05-23T02:38:15.442Z,15.77
2019-05-23T02:39:39.922Z,13.60
2019-05-23T02:41:14.974Z,10.83
2019-05-23T02:42:43.378Z,13.63
2019-05-23T02:43:55.226Z,11.77
2019-05-23T02:45:04.511Z,14.00
2019-05-23T02:46:24.698Z,13.07
2019-05-23T02:47:42.482Z,11.57
2019-05-23T02:48:51.980Z,13.67
2019-05-23T02:50:02.557Z,14.23
2019-05-23T02:51:18.762Z,12.27
2019-05-23T02:52:49.507Z,12.63
2019-05-23T02:53:59.509Z,14.07
2019-05-23T02:55:20.153Z,10.40
2019-05-23T02:56:32.091Z,14.83
2019-05-23T02:57:40.666Z,17.10
2019-05-23T02:59:42.403Z,12.43
2019-05-23T03:01:15.891Z,13.60
2019-05-23T03:02:54.791Z,12.67
2019-05-23T03:04:11.306Z,12.97
2019-05-23T03:05:21.831Z,11.13
2019-05-23T03:06:29.437Z,11.90
2019-05-23T03:07:37.137Z,11.90
2019-05-23T03:08:46.023Z,13.10
2019-05-23T03:09:53.027Z,13.00
2019-05-23T03:11:33.945Z,11.23
2019-05-23T03:12:44.861Z,19.77
2019-05-23T03:13:56.307Z,12.00
2019-05-23T03:15:04.851Z,13.47
2019-05-23T03:16:18.839Z,10.90
2019-05-23T03:17:30.858Z,10.93
2019-05-23T03:18:44.692Z,12.63
2019-05-23T03:20:02.341Z,10.60
2019-05-23T03:21:11.879Z,9.47
2019-05-23T03:22:37.281Z,12.80
2019-05-23T03:23:45.252Z,9.73
2019-05-23T03:24:53.941Z,12.13
2019-05-23T03:27:00.458Z,13.27
2019-05-23T03:28:12.102Z,11.47
2019-05-23T03:29:19.135Z,14.47
2019-05-23T03:30:30.130Z,16.20
2019-05-23T03:31:46.877Z,16.60
2019-05-23T03:32:57.969Z,12.63
2019-05-23T03:34:08.164Z,11.30
2019-05-23T03:35:35.135Z,12.47
2019-05-23T03:36:42.234Z,12.50
2019-05-23T03:37:51.154Z,12.83
2019-05-23T03:38:58.698Z,12.20
2019-05-23T03:40:11.415Z,13.80
2019-05-23T03:41:19.170Z,16.10
2019-05-23T03:42:27.680Z,13.57
2019-05-23T03:43:35.050Z,12.10
2019-05-23T03:44:44.390Z,13.57
2019-05-23T03:45:53.965Z,11.17
2019-05-23T03:47:02.188Z,12.63
2019-05-23T03:48:11.968Z,15.13
2019-05-23T03:49:22.109Z,12.80
2019-05-23T03:50:30.215Z,13.43
2019-05-23T03:51:39.043Z,10.80
2019-05-23T03:52:46.246Z,12.73
2019-05-23T03:53:55.754Z,11.00
2019-05-23T03:55:03.343Z,15.30
2019-05-23T03:56:12.179Z,15.00
2019-05-23T03:57:25.365Z,10.30
2019-05-23T03:58:32.614Z,14.30
2019-05-23T03:59:40.673Z,12.90
2019-05-23T04:00:53.627Z,11.40
2019-05-23T04:02:02.512Z,13.23
2019-05-23T04:03:12.882Z,14.83
2019-05-23T04:04:20.694Z,13.20
2019-05-23T04:05:29.205Z,13.97
2019-05-23T04:06:37.901Z,12.77
2019-05-23T04:07:45.809Z,10.50
2019-05-23T04:08:52.934Z,15.40
2019-05-23T04:10:00.959Z,11.67
2019-05-23T04:11:07.964Z,11.50
2019-05-23T04:12:15.961Z,12.40
2019-05-23T04:13:23.811Z,17.13
2019-05-23T04:14:32.217Z,13.63
2019-05-23T04:15:39.055Z,15.67
2019-05-23T04:16:47.486Z,11.47
2019-05-23T04:17:54.501Z,12.83
2019-05-23T04:19:02.880Z,10.60
2019-05-23T04:20:11.052Z,11.90
2019-05-23T04:21:23.934Z,14.60
2019-05-23T04:22:31.885Z,12.27
2019-05-23T04:23:40.879Z,17.80
2019-05-23T04:24:48.090Z,14.33
2019-05-23T04:25:56.182Z,13.80
2019-05-23T04:27:03.909Z,10.83
2019-05-23T04:28:32.512Z,13.83
2019-05-23T04:29:39.360Z,15.10
2019-05-23T04:30:47.389Z,12.73
2019-05-23T04:32:06.876Z,13.27
2019-05-23T04:33:05.467Z,14.97
2019-05-23T04:34:12.511Z,15.33
2019-05-23T04:35:20.173Z,14.90
2019-05-23T04:36:27.029Z,11.83
2019-05-23T04:37:35.077Z,12.67
2019-05-23T04:38:42.671Z,11.10
2019-05-23T04:39:51.127Z,10.40
2019-05-23T04:40:58.733Z,10.53
2019-05-23T04:42:08.249Z,13.70
2019-05-23T04:43:15.801Z,12.20
2019-05-23T04:44:24.167Z,15.40
2019-05-23T04:45:31.601Z,13.70
2019-05-23T04:46:39.925Z,14.90
2019-05-23T04:47:48.479Z,12.53
2019-05-23T04:48:56.590Z,11.33
2019-05-23T04:50:04.389Z,16.90
2019-05-23T04:51:12.804Z,10.70
2019-05-23T04:52:20.443Z,13.63
2019-05-23T04:53:28.366Z,12.43
2019-05-23T04:54:35.426Z,16.27
2019-05-23T04:55:44.807Z,10.80
2019-05-23T04:56:52.045Z,13.10
2019-05-23T04:58:04.292Z,17.17
2019-05-23T04:59:09.445Z,15.10
2019-05-23T05:00:19.511Z,16.03
2019-05-23T05:01:27.042Z,18.80
2019-05-23T05:02:35.427Z,15.00
2019-05-23T05:03:46.500Z,13.93
2019-05-23T05:04:54.585Z,16.00
2019-05-23T05:06:02.304Z,13.10
2019-05-23T05:07:10.428Z,12.20
2019-05-23T05:08:17.516Z,11.60
2019-05-23T05:09:26.626Z,14.60
2019-05-23T05:10:34.861Z,14.60
2019-05-23T05:11:43.691Z,14.20
2019-05-23T05:12:52.245Z,11.40
2019-05-23T05:14:00.583Z,17.47
2019-05-23T05:15:08.067Z,11.87
2019-05-23T05:16:16.013Z,13.83
2019-05-23T05:17:23.310Z,11.90
2019-05-23T05:18:31.368Z,12.13
2019-05-23T05:19:38.623Z,13.07
2019-05-23T05:20:46.224Z,18.93
2019-05-23T05:21:53.526Z,15.50
2019-05-23T05:23:01.365Z,18.97
2019-05-23T05:24:08.250Z,13.80
2019-05-23T05:25:16.795Z,13.40
2019-05-23T05:26:25.202Z,11.30
2019-05-23T05:27:33.319Z,12.10
2019-05-23T05:28:40.696Z,13.43
2019-05-23T05:29:48.433Z,16.33
2019-05-23T05:30:56.411Z,14.03
2019-05-23T05:32:05.170Z,9.83
2019-05-23T05:33:13.171Z,16.60
2019-05-23T05:34:21.095Z,16.20
2019-05-23T05:35:30.063Z,11.63
2019-05-23T05:36:37.945Z,13.67
2019-05-23T05:37:45.457Z,13.60
2019-05-23T05:38:53.964Z,13.17
2019-05-23T05:40:01.688Z,15.70
2019-05-23T05:41:09.916Z,14.10
2019-05-23T05:42:17.903Z,14.27
2019-05-23T05:43:25.520Z,10.10
2019-05-23T05:44:32.701Z,12.10
2019-05-23T05:45:40.861Z,16.00
2019-05-23T05:46:48.280Z,23.53
2019-05-23T05:47:56.466Z,22.57
2019-05-23T05:49:04.428Z,33.33
2019-05-23T05:50:15.206Z,37.10
2019-05-23T05:51:23.326Z,28.67
2019-05-23T05:52:31.705Z,36.13
2019-05-23T05:53:39.492Z,20.23
2019-05-23T05:54:47.126Z,21.27
2019-05-23T05:55:54.042Z,24.93
2019-05-23T05:57:02.122Z,12.00
2019-05-23T05:58:09.012Z,24.50
2019-05-23T05:59:16.729Z,26.07
2019-05-23T06:00:35.602Z,28.83
2019-05-23T06:01:43.238Z,14.13
2019-05-23T06:03:03.768Z,12.97
2019-05-23T06:03:59.792Z,19.93
2019-05-23T06:05:08.171Z,11.47
2019-05-23T06:06:26.647Z,14.67
2019-05-23T06:07:38.457Z,12.80
2019-05-23T06:08:47.209Z,25.33
2019-05-23T06:09:54.980Z,12.63
2019-05-23T06:11:02.988Z,11.40
2019-05-23T06:12:11.711Z,10.73
2019-05-23T06:13:19.746Z,10.27
2019-05-23T06:14:27.116Z,10.27
2019-05-23T06:15:35.474Z,14.77
2019-05-23T06:16:43.066Z,14.23
2019-05-23T06:17:51.444Z,13.90
2019-05-23T06:18:58.575Z,14.67
2019-05-23T06:20:07.199Z,11.50
2019-05-23T06:21:16.860Z,10.63
2019-05-23T06:22:25.451Z,12.20
2019-05-23T06:23:33.470Z,11.53
2019-05-23T06:24:48.969Z,12.70
2019-05-23T06:25:49.978Z,11.87
2019-05-23T06:26:58.083Z,10.30
2019-05-23T06:28:05.671Z,10.60
2019-05-23T06:29:13.802Z,9.80
2019-05-23T06:30:23.906Z,13.10
2019-05-23T06:31:32.809Z,11.63
2019-05-23T06:32:40.240Z,15.33
2019-05-23T06:33:49.280Z,12.53
2019-05-23T06:34:58.518Z,8.23
2019-05-23T06:36:07.043Z,10.63
2019-05-23T06:37:14.375Z,10.63
2019-05-23T06:38:23.541Z,9.90
2019-05-23T06:39:31.459Z,9.93
2019-05-23T06:40:40.113Z,11.67
2019-05-23T06:41:47.369Z,11.57
2019-05-23T06:42:55.344Z,9.43
2019-05-23T06:44:02.592Z,10.73
2019-05-23T06:45:12.197Z,8.97
2019-05-23T06:46:19.953Z,12.30
2019-05-23T06:47:28.703Z,14.77
2019-05-23T06:48:35.921Z,10.97
2019-05-23T06:49:43.552Z,10.70
2019-05-23T06:51:09.848Z,11.53
2019-05-23T06:52:18.231Z,10.60
2019-05-23T06:53:25.079Z,10.07
2019-05-23T06:54:33.967Z,8.40
2019-05-23T06:55:41.015Z,9.37
2019-05-23T06:56:49.665Z,13.93
2019-05-23T06:57:57.379Z,10.33
2019-05-23T06:59:05.596Z,9.17
2019-05-23T07:00:15.192Z,9.00
2019-05-23T07:01:23.676Z,7.27
2019-05-23T07:02:32.267Z,6.90
2019-05-23T07:03:43.195Z,8.07
2019-05-23T07:04:49.001Z,10.50
2019-05-23T07:05:57.365Z,8.73
2019-05-23T07:07:04.807Z,9.57
2019-05-23T07:08:12.445Z,4.33
2019-05-23T07:09:22.138Z,6.37
2019-05-23T07:10:30.425Z,8.20
2019-05-23T07:11:38.078Z,7.77
2019-05-23T07:12:47.202Z,8.00
2019-05-23T07:13:54.669Z,8.83
2019-05-23T07:15:03.158Z,9.37
2019-05-23T07:16:10.391Z,11.43
2019-05-23T07:17:20.762Z,7.63
2019-05-23T07:18:28.700Z,7.90
2019-05-23T07:19:37.169Z,5.47
2019-05-23T07:20:44.808Z,11.37
2019-05-23T07:21:53.333Z,5.13
2019-05-23T07:23:01.477Z,9.03
2019-05-23T07:24:09.824Z,6.90
2019-05-23T07:25:16.908Z,9.70
2019-05-23T07:26:24.613Z,8.50
2019-05-23T07:27:32.366Z,6.03
2019-05-23T07:28:40.638Z,7.17
2019-05-23T07:29:47.936Z,6.83
2019-05-23T07:30:57.506Z,6.30
2019-05-23T07:32:06.734Z,7.07
2019-05-23T07:33:15.911Z,8.80
2019-05-23T07:34:22.837Z,9.00
2019-05-23T07:35:30.820Z,6.20
2019-05-23T07:36:38.680Z,6.80
2019-05-23T07:37:46.564Z,7.43
2019-05-23T07:38:53.592Z,6.60
2019-05-23T07:40:01.695Z,6.73
2019-05-23T07:41:09.114Z,9.00
2019-05-23T07:42:17.167Z,7.57
2019-05-23T07:43:25.010Z,9.80
2019-05-23T07:44:47.427Z,8.10
2019-05-23T07:45:50.166Z,6.33
2019-05-23T07:46:58.263Z,6.50
2019-05-23T07:48:05.532Z,5.60
2019-05-23T07:49:13.204Z,7.10
2019-05-23T07:50:20.431Z,9.07
2019-05-23T07:51:29.821Z,6.13
2019-05-23T07:52:37.338Z,6.73
2019-05-23T07:53:58.989Z,6.57
2019-05-23T07:55:10.847Z,7.43
2019-05-23T07:56:20.067Z,8.53
2019-05-23T07:57:27.343Z,6.63
2019-05-23T07:58:34.943Z,5.73
2019-05-23T07:59:42.978Z,5.93
2019-05-23T08:00:55.992Z,15.63
2019-05-23T08:02:16.883Z,8.60
2019-05-23T08:03:28.686Z,7.23
2019-05-23T08:04:35.592Z,6.97
2019-05-23T08:05:44.368Z,10.50
2019-05-23T08:06:51.498Z,7.63
2019-05-23T08:07:59.606Z,6.37
2019-05-23T08:09:10.048Z,7.27
2019-05-23T08:10:32.535Z,6.27
2019-05-23T08:11:27.235Z,7.40
2019-05-23T08:12:34.919Z,10.20
2019-05-23T08:13:42.121Z,7.03
2019-05-23T08:14:50.384Z,7.33
2019-05-23T08:15:58.877Z,12.43
2019-05-23T08:17:08.268Z,4.30
2019-05-23T08:18:15.711Z,7.37
2019-05-23T08:19:23.936Z,5.70
2019-05-23T08:20:31.143Z,5.47
2019-05-23T08:21:39.486Z,7.27
2019-05-23T08:22:47.670Z,8.50
2019-05-23T08:23:55.948Z,7.13
2019-05-23T08:25:02.964Z,8.73
2019-05-23T08:26:11.861Z,5.50
2019-05-23T08:27:18.857Z,6.03
2019-05-23T08:28:27.018Z,5.00
2019-05-23T08:29:34.956Z,5.03
2019-05-23T08:30:43.139Z,5.37
2019-05-23T08:31:50.190Z,10.03
2019-05-23T08:32:58.113Z,5.30
2019-05-23T08:34:15.937Z,7.30
2019-05-23T08:35:23.031Z,5.77
2019-05-23T08:36:31.483Z,5.80
2019-05-23T08:37:39.961Z,6.80
2019-05-23T08:38:49.195Z,4.50
2019-05-23T08:39:56.105Z,5.87
2019-05-23T08:41:03.996Z,7.83
2019-05-23T08:42:12.415Z,8.17
2019-05-23T08:43:20.295Z,7.43
2019-05-23T08:44:27.464Z,4.70
2019-05-23T08:45:35.803Z,6.47
2019-05-23T08:46:43.896Z,8.50
2019-05-23T08:47:51.569Z,5.40
2019-05-23T08:49:00.160Z,3.93
2019-05-23T08:50:10.321Z,6.87
2019-05-23T08:51:17.407Z,6.23
2019-05-23T08:52:25.606Z,5.90
2019-05-23T08:53:32.773Z,6.20
2019-05-23T08:54:40.694Z,8.57
2019-05-23T08:55:47.607Z,7.80
2019-05-23T08:56:55.849Z,7.67
2019-05-23T08:58:02.996Z,5.93
2019-05-23T08:59:11.724Z,6.13
2019-05-23T09:00:19.331Z,6.43
2019-05-23T09:01:27.384Z,9.27
2019-05-23T09:02:36.122Z,8.20
2019-05-23T09:03:44.081Z,7.10
2019-05-23T09:05:04.407Z,6.00
2019-05-23T09:06:01.832Z,6.30
2019-05-23T09:07:10.485Z,6.90
2019-05-23T09:08:19.085Z,5.37
2019-05-23T09:09:30.053Z,7.43
2019-05-23T09:10:38.494Z,7.53
2019-05-23T09:11:46.030Z,7.07
2019-05-23T09:12:53.823Z,5.60
2019-05-23T09:14:01.289Z,5.60
2019-05-23T09:15:10.507Z,7.60
2019-05-23T09:16:17.797Z,5.50
2019-05-23T09:17:25.904Z,7.33
2019-05-23T09:18:33.139Z,5.17
2019-05-23T09:19:41.123Z,4.10
2019-05-23T09:20:48.364Z,5.30
2019-05-23T09:21:58.018Z,6.80
2019-05-23T09:23:05.374Z,8.57
2019-05-23T09:24:14.282Z,5.53
2019-05-23T09:25:22.037Z,9.17
2019-05-23T09:26:30.738Z,8.93
2019-05-23T09:27:37.861Z,5.93
2019-05-23T09:28:46.913Z,9.00
2019-05-23T09:29:54.833Z,10.40
2019-05-23T09:31:02.839Z,5.00
2019-05-23T09:32:10.137Z,7.30
2019-05-23T09:33:18.530Z,7.93
2019-05-23T09:34:25.447Z,5.83
2019-05-23T09:35:33.479Z,6.67
2019-05-23T09:36:40.843Z,8.23
2019-05-23T09:37:49.659Z,9.63
2019-05-23T09:38:56.470Z,10.70
2019-05-23T09:40:04.465Z,10.90
2019-05-23T09:41:11.427Z,11.47
2019-05-23T09:42:19.159Z,12.53
2019-05-23T09:43:26.262Z,7.67
2019-05-23T09:44:33.931Z,8.27
2019-05-23T09:45:41.631Z,8.00
2019-05-23T09:46:49.685Z,7.40
2019-05-23T09:47:56.525Z,8.60
2019-05-23T09:49:04.338Z,9.00
2019-05-23T09:50:16.160Z,7.10
2019-05-23T09:51:24.024Z,5.10
2019-05-23T09:52:31.362Z,12.90
2019-05-23T09:53:39.266Z,7.90
2019-05-23T09:54:46.411Z,6.50
2019-05-23T09:55:55.915Z,6.53
2019-05-23T09:57:04.953Z,5.03
2019-05-23T09:58:12.850Z,5.47
2019-05-23T09:59:19.989Z,10.50
2019-05-23T10:00:29.246Z,7.03
2019-05-23T10:01:36.480Z,7.10
2019-05-23T10:02:44.108Z,9.83
2019-05-23T10:03:51.123Z,10.33
2019-05-23T10:04:59.458Z,7.33
2019-05-23T10:06:07.543Z,10.03
2019-05-23T10:07:15.640Z,8.43
2019-05-23T10:08:22.959Z,10.07
2019-05-23T10:09:30.597Z,6.77
2019-05-23T10:10:38.305Z,6.07
2019-05-23T10:11:46.258Z,6.43
2019-05-23T10:12:53.193Z,7.70
2019-05-23T10:14:01.412Z,14.63
2019-05-23T10:15:12.199Z,13.43
2019-05-23T10:16:19.815Z,9.40
2019-05-23T10:17:27.652Z,9.53
2019-05-23T10:18:35.606Z,8.10
2019-05-23T10:19:42.407Z,6.27
2019-05-23T10:20:50.573Z,9.33
2019-05-23T10:21:57.384Z,8.30
2019-05-23T10:23:05.702Z,9.87
2019-05-23T10:24:14.769Z,8.43
2019-05-23T10:25:22.383Z,7.53
2019-05-23T10:26:29.446Z,5.73
2019-05-23T10:27:37.070Z,8.30
2019-05-23T10:28:43.999Z,8.40
2019-05-23T10:29:52.053Z,8.70
2019-05-23T10:30:58.974Z,8.83
2019-05-23T10:32:08.477Z,8.57
2019-05-23T10:33:16.164Z,8.53
2019-05-23T10:34:23.978Z,11.20
2019-05-23T10:35:31.058Z,9.90
2019-05-23T10:36:39.033Z,9.10
2019-05-23T10:37:46.012Z,8.10
2019-05-23T10:38:53.822Z,7.20
2019-05-23T10:40:00.799Z,8.60
2019-05-23T10:41:08.508Z,7.20
2019-05-23T10:42:15.820Z,10.30
2019-05-23T10:43:23.516Z,10.57
2019-05-23T10:44:30.533Z,10.83
2019-05-23T10:45:38.169Z,10.60
2019-05-23T10:46:45.353Z,10.07
2019-05-23T10:47:53.640Z,12.90
2019-05-23T10:49:01.081Z,10.50
2019-05-23T10:50:10.424Z,10.03
2019-05-23T10:51:17.789Z,12.80
2019-05-23T10:52:25.998Z,13.83
2019-05-23T10:53:33.300Z,8.83
2019-05-23T10:54:41.036Z,8.17
2019-05-23T10:55:48.049Z,9.83
2019-05-23T10:56:55.646Z,7.83
2019-05-23T10:58:03.539Z,8.37
2019-05-23T10:59:11.181Z,10.73
2019-05-23T11:00:22.450Z,10.20
2019-05-23T11:01:30.264Z,14.23
2019-05-23T11:02:38.585Z,13.17
2019-05-23T11:03:47.278Z,11.53
2019-05-23T11:04:54.086Z,11.50
2019-05-23T11:06:14.691Z,12.00
2019-05-23T11:07:11.858Z,13.10
2019-05-23T11:08:19.924Z,15.37
2019-05-23T11:09:37.308Z,9.40
2019-05-23T11:10:36.713Z,11.40
2019-05-23T11:11:44.465Z,10.70
2019-05-23T11:12:52.765Z,9.47
2019-05-23T11:13:59.942Z,10.50
2019-05-23T11:15:08.657Z,10.77
2019-05-23T11:16:15.549Z,11.77
2019-05-23T11:17:23.335Z,11.20
2019-05-23T11:18:30.221Z,8.80
2019-05-23T11:19:38.654Z,7.97
2019-05-23T11:20:45.909Z,8.53
2019-05-23T11:21:53.962Z,14.20
2019-05-23T11:23:03.773Z,9.63
2019-05-23T11:24:11.923Z,9.00
2019-05-23T11:25:20.271Z,9.20
2019-05-23T11:26:27.891Z,7.60
2019-05-23T11:27:35.150Z,8.33
2019-05-23T11:28:43.424Z,10.43
2019-05-23T11:29:50.721Z,9.27
2019-05-23T11:30:59.069Z,7.60
2019-05-23T11:32:07.688Z,8.00
2019-05-23T11:33:16.558Z,9.63
2019-05-23T11:34:23.633Z,10.67
2019-05-23T11:35:31.848Z,10.40
2019-05-23T11:36:39.013Z,15.67
2019-05-23T11:37:46.833Z,9.20
2019-05-23T11:38:53.788Z,8.97
2019-05-23T11:40:02.053Z,6.70
2019-05-23T11:41:09.181Z,7.80
2019-05-23T11:42:16.885Z,7.80
2019-05-23T11:43:23.835Z,8.37
2019-05-23T11:49:03.327Z,8.43
2019-05-23T11:50:11.990Z,9.50
2019-05-23T11:51:24.162Z,6.53
2019-05-23T11:52:30.018Z,9.50
2019-05-23T11:53:37.073Z,10.63
2019-05-23T11:54:46.040Z,8.20
2019-05-23T11:55:54.399Z,10.10
2019-05-23T11:57:03.152Z,10.50
2019-05-23T11:58:10.521Z,15.60
2019-05-23T11:59:18.387Z,9.73
2019-05-23T12:01:04.958Z,10.50
2019-05-23T12:02:22.226Z,6.47
2019-05-23T12:03:29.257Z,10.70
2019-05-23T12:04:41.894Z,7.53
2019-05-23T12:05:48.725Z,8.73
2019-05-23T12:07:16.402Z,7.73
2019-05-23T12:08:23.220Z,9.97
2019-05-23T12:09:31.792Z,8.10
2019-05-23T12:10:38.791Z,10.57
2019-05-23T12:11:47.184Z,11.07
2019-05-23T12:12:54.573Z,8.70
2019-05-23T12:14:02.862Z,7.03
2019-05-23T12:15:17.518Z,8.40
2019-05-23T12:16:25.572Z,9.27
2019-05-23T12:17:33.266Z,8.23
2019-05-23T12:18:41.459Z,8.23
2019-05-23T12:19:48.893Z,9.93
2019-05-23T12:20:59.765Z,8.07
2019-05-23T12:22:07.292Z,10.13
2019-05-23T12:23:14.895Z,7.60
2019-05-23T12:24:22.066Z,17.43
2019-05-23T12:25:31.872Z,9.73
2019-05-23T12:26:38.862Z,8.27
2019-05-23T12:27:46.587Z,11.53
2019-05-23T12:28:54.242Z,8.03
2019-05-23T12:30:02.252Z,6.83
2019-05-23T12:31:10.021Z,10.60
2019-05-23T12:32:18.481Z,7.00
2019-05-23T12:33:25.680Z,9.53
2019-05-23T12:34:33.852Z,7.93
2019-05-23T12:35:40.723Z,8.50
2019-05-23T12:36:48.386Z,11.57
2019-05-23T12:37:55.210Z,13.63
2019-05-23T12:39:03.391Z,7.77
2019-05-23T12:40:12.061Z,8.77
2019-05-23T12:41:19.660Z,7.67
2019-05-23T12:42:26.640Z,8.83
2019-05-23T12:43:34.272Z,10.90
2019-05-23T12:44:41.528Z,11.03
2019-05-23T12:45:49.322Z,9.77
2019-05-23T12:46:56.616Z,10.07
2019-05-23T12:48:08.912Z,10.63
2019-05-23T12:49:36.330Z,12.10
2019-05-23T12:50:45.520Z,10.13
2019-05-23T12:51:53.018Z,10.77
2019-05-23T12:53:00.986Z,12.17
2019-05-23T12:54:08.401Z,8.67
2019-05-23T12:55:16.686Z,10.57
2019-05-23T12:56:48.624Z,7.57
2019-05-23T12:57:54.004Z,9.50
2019-05-23T12:59:01.986Z,15.47
2019-05-23T13:00:14.390Z,9.13
2019-05-23T13:01:22.886Z,17.40
2019-05-23T13:02:30.703Z,9.50
2019-05-23T13:03:38.197Z,11.13
2019-05-23T13:04:47.016Z,10.77
2019-05-23T13:05:54.873Z,9.07
2019-05-23T13:07:03.376Z,12.97
2019-05-23T13:08:10.201Z,10.00
2019-05-23T13:09:18.248Z,9.67
2019-05-23T13:10:25.732Z,10.30
2019-05-23T13:11:35.303Z,11.00
2019-05-23T13:12:42.260Z,12.00
2019-05-23T13:13:50.306Z,13.03
2019-05-23T13:14:58.896Z,10.33
2019-05-23T13:16:07.086Z,11.63
2019-05-23T13:17:14.005Z,9.47
2019-05-23T13:18:21.644Z,13.40
2019-05-23T13:19:29.564Z,11.87
2019-05-23T13:20:37.683Z,10.60
2019-05-23T13:21:45.012Z,11.90
2019-05-23T13:22:52.688Z,10.20
2019-05-23T13:23:59.517Z,11.83
2019-05-23T13:25:08.062Z,15.53
2019-05-23T13:26:15.083Z,11.20
2019-05-23T13:27:22.978Z,10.50
2019-05-23T13:28:30.361Z,9.57
2019-05-23T13:29:38.107Z,10.33
2019-05-23T13:30:45.432Z,11.93
2019-05-23T13:31:53.162Z,11.87
2019-05-23T13:33:03.562Z,11.07
2019-05-23T13:34:11.161Z,8.50
2019-05-23T13:35:18.436Z,15.50
2019-05-23T13:36:26.388Z,11.70
2019-05-23T13:37:33.391Z,27.17
2019-05-23T13:38:41.563Z,10.87
2019-05-23T13:39:48.575Z,11.40
2019-05-23T13:40:56.209Z,10.33
2019-05-23T13:42:03.185Z,10.40
2019-05-23T13:43:11.361Z,8.80
2019-05-23T13:44:32.671Z,14.57
2019-05-23T13:45:28.484Z,10.70
2019-05-23T13:46:35.792Z,10.17
2019-05-23T13:47:44.234Z,14.97
2019-05-23T13:48:51.050Z,10.50
2019-05-23T13:49:59.285Z,12.23
2019-05-23T13:51:06.698Z,13.20
2019-05-23T13:52:15.095Z,13.70
2019-05-23T13:53:22.413Z,15.60
2019-05-23T13:54:30.389Z,10.73
2019-05-23T13:55:38.501Z,10.93
2019-05-23T13:56:47.822Z,15.33
2019-05-23T13:57:55.307Z,11.90
2019-05-23T13:59:02.938Z,12.60
2019-05-23T14:00:11.862Z,14.43
2019-05-23T14:01:20.603Z,10.83
2019-05-23T14:02:28.101Z,11.27
2019-05-23T14:03:36.794Z,8.50
2019-05-23T14:04:43.888Z,13.43
2019-05-23T14:05:52.483Z,10.00
2019-05-23T14:06:59.834Z,11.70
2019-05-23T14:08:12.686Z,20.13
2019-05-23T14:09:20.005Z,16.67
2019-05-23T14:10:27.719Z,11.50
2019-05-23T14:11:35.451Z,12.63
2019-05-23T14:12:43.550Z,15.43
2019-05-23T14:13:59.689Z,12.17
2019-05-23T14:14:59.966Z,11.80
2019-05-23T14:16:07.260Z,16.17
2019-05-23T14:17:28.634Z,13.40
2019-05-23T14:18:36.177Z,14.77
2019-05-23T14:19:44.423Z,10.93
2019-05-23T14:20:52.072Z,16.07
2019-05-23T14:22:00.067Z,10.93
2019-05-23T14:23:41.485Z,12.00
2019-05-23T14:24:48.328Z,14.20
2019-05-23T14:25:56.706Z,12.07
2019-05-23T14:27:13.555Z,13.53
2019-05-23T14:28:21.647Z,14.83
2019-05-23T14:29:28.538Z,18.60
2019-05-23T14:30:44.528Z,14.73
2019-05-23T14:31:59.966Z,11.13
2019-05-23T14:33:11.587Z,9.97
2019-05-23T14:34:20.235Z,9.37
2019-05-23T14:35:30.856Z,10.07
2019-05-23T14:37:15.404Z,12.50
2019-05-23T14:38:30.690Z,11.63
2019-05-23T14:39:48.797Z,13.30
2019-05-23T14:40:56.196Z,10.00
2019-05-23T14:42:24.141Z,14.17
2019-05-23T14:43:31.058Z,11.73
2019-05-23T14:44:38.653Z,12.00
2019-05-23T14:46:01.184Z,13.57
2019-05-23T14:47:28.199Z,13.17
2019-05-23T14:48:51.315Z,12.70
2019-05-23T14:50:08.729Z,7.33
2019-05-23T14:51:31.333Z,8.50
2019-05-23T14:52:41.822Z,14.20
2019-05-23T14:53:52.519Z,8.90
2019-05-23T14:55:03.584Z,8.07
2019-05-23T14:56:11.328Z,6.37
2019-05-23T14:57:19.780Z,8.80
2019-05-23T14:58:29.346Z,7.00
2019-05-23T14:59:38.114Z,7.00
2019-05-23T15:00:45.327Z,9.67
2019-05-23T15:01:53.716Z,6.70
2019-05-23T15:03:01.037Z,11.87
2019-05-23T15:04:08.962Z,9.67
2019-05-23T15:05:16.489Z,6.23
2019-05-23T15:06:25.096Z,9.90
2019-05-23T15:07:34.297Z,7.50
2019-05-23T15:08:50.864Z,10.57
2019-05-23T15:09:51.093Z,9.13
2019-05-23T15:10:59.210Z,7.80
2019-05-23T15:12:07.412Z,12.30